createdAt,value
2018-10-12T00:00:16.701Z,99.90
2018-10-12T00:02:52.137Z,99.90
2018-10-12T00:05:23.577Z,99.90
2018-10-12T00:07:53.958Z,99.90
2018-10-12T00:10:24.366Z,99.90
2018-10-12T00:12:54.754Z,99.90
2018-10-12T00:15:25.078Z,99.90
2018-10-12T00:17:55.490Z,99.90
2018-10-12T00:20:25.888Z,99.90
2018-10-12T00:22:56.278Z,99.90
2018-10-12T00:25:26.690Z,99.90
2018-10-12T00:27:57.071Z,99.90
2018-10-12T00:30:28.418Z,99.90
2018-10-12T00:32:58.783Z,99.90
2018-10-12T00:35:29.114Z,99.90
2018-10-12T00:37:59.485Z,99.90
2018-10-12T00:40:29.818Z,99.90
2018-10-12T00:43:00.194Z,99.90
2018-10-12T00:45:30.815Z,99.90
2018-10-12T00:48:01.223Z,99.90
2018-10-12T00:50:32.381Z,99.90
2018-10-12T00:53:03.465Z,99.90
2018-10-12T00:55:56.054Z,99.90
2018-10-12T00:58:27.224Z,99.90
2018-10-12T01:00:57.619Z,99.90
2018-10-12T01:03:28.010Z,99.90
2018-10-12T01:05:58.408Z,99.90
2018-10-12T01:08:28.802Z,99.90
2018-10-12T01:10:59.207Z,99.90
2018-10-12T01:13:29.587Z,99.90
2018-10-12T01:15:59.943Z,99.90
2018-10-12T01:18:49.659Z,99.90
2018-10-12T01:21:19.985Z,99.90
2018-10-12T01:23:50.641Z,99.90
2018-10-12T01:26:21.035Z,99.90
2018-10-12T01:28:51.421Z,99.90
2018-10-12T01:31:23.854Z,99.90
2018-10-12T01:33:54.239Z,99.90
2018-10-12T01:36:26.681Z,99.90
2018-10-12T01:38:57.086Z,99.90
2018-10-12T01:41:28.246Z,99.90
2018-10-12T01:43:58.641Z,99.90
2018-10-12T01:46:29.026Z,99.90
2018-10-12T01:48:59.371Z,99.90
2018-10-12T01:51:29.758Z,99.90
2018-10-12T01:54:00.157Z,99.90
2018-10-12T01:56:31.318Z,99.90
2018-10-12T01:59:01.709Z,99.90
2018-10-12T02:01:32.101Z,99.90
2018-10-12T02:04:03.164Z,99.90
2018-10-12T02:06:33.545Z,99.90
2018-10-12T02:09:04.112Z,99.90
2018-10-12T02:11:55.932Z,99.90
2018-10-12T02:14:30.421Z,99.90
2018-10-12T02:17:01.580Z,99.90
2018-10-12T02:19:31.994Z,99.90
2018-10-12T02:22:03.140Z,99.90
2018-10-12T02:24:33.515Z,99.90
2018-10-12T02:27:03.918Z,99.90
2018-10-12T02:29:36.347Z,99.90
2018-10-12T02:32:07.499Z,99.90
2018-10-12T02:34:37.899Z,99.90
2018-10-12T02:37:08.293Z,99.90
2018-10-12T02:39:40.740Z,99.90
2018-10-12T02:42:11.903Z,99.90
2018-10-12T02:44:42.288Z,99.90
2018-10-12T02:47:12.679Z,99.90
2018-10-12T02:49:45.124Z,99.90
2018-10-12T02:52:15.503Z,99.90
2018-10-12T02:54:45.908Z,99.90
2018-10-12T02:57:37.686Z,99.90
2018-10-12T03:00:08.853Z,99.90
2018-10-12T03:02:40.192Z,99.90
2018-10-12T03:05:11.468Z,99.90
2018-10-12T03:07:49.076Z,99.90
2018-10-12T03:10:20.195Z,99.90
2018-10-12T03:12:51.621Z,99.90
2018-10-12T03:15:22.779Z,99.90
2018-10-12T03:17:54.210Z,99.90
2018-10-12T03:20:25.377Z,99.90
2018-10-12T03:22:55.780Z,99.90
2018-10-12T03:25:26.195Z,99.90
2018-10-12T03:28:14.142Z,99.90
2018-10-12T03:30:45.328Z,99.90
2018-10-12T03:33:15.723Z,99.90
2018-10-12T03:35:46.874Z,99.90
2018-10-12T03:38:18.032Z,99.90
2018-10-12T03:40:48.413Z,99.90
2018-10-12T03:43:18.797Z,99.90
2018-10-12T03:45:51.180Z,99.90
2018-10-12T03:48:42.910Z,99.90
2018-10-12T03:51:14.271Z,99.90
2018-10-12T03:53:44.676Z,99.90
2018-10-12T03:56:18.126Z,99.90
2018-10-12T04:01:35.541Z,99.90
2018-10-12T04:04:05.879Z,99.90
2018-10-12T04:06:36.277Z,99.90
2018-10-12T04:09:08.718Z,99.90
2018-10-12T04:11:39.043Z,99.90
2018-10-12T04:14:09.434Z,99.90
2018-10-12T04:16:39.825Z,99.90
2018-10-12T04:19:16.297Z,99.90
2018-10-12T04:21:46.687Z,99.90
2018-10-12T04:24:17.085Z,99.90
2018-10-12T04:26:49.538Z,99.90
2018-10-12T04:29:19.915Z,99.90
2018-10-12T04:31:50.241Z,99.90
2018-10-12T04:34:20.645Z,99.90
2018-10-12T04:36:51.063Z,99.90
2018-10-12T04:39:48.086Z,99.90
2018-10-12T04:42:39.892Z,99.90
2018-10-12T04:45:10.237Z,99.90
2018-10-12T04:47:42.674Z,99.90
2018-10-12T04:50:13.061Z,99.90
2018-10-12T04:52:43.467Z,99.90
2018-10-12T04:55:36.050Z,99.90
2018-10-12T04:58:06.392Z,99.90
2018-10-12T05:00:36.847Z,99.90
2018-10-12T05:03:07.126Z,99.90
2018-10-12T05:05:37.534Z,99.90
2018-10-12T05:08:07.929Z,99.90
2018-10-12T05:10:38.330Z,99.90
2018-10-12T05:13:09.433Z,99.90
2018-10-12T05:15:39.839Z,99.90
2018-10-12T05:18:28.511Z,99.90
2018-10-12T05:20:58.875Z,99.90
2018-10-12T05:23:29.233Z,99.90
2018-10-12T05:25:59.619Z,99.90
2018-10-12T05:28:30.784Z,99.90
2018-10-12T05:31:01.943Z,99.90
2018-10-12T05:33:32.352Z,99.90
2018-10-12T05:36:03.585Z,99.90
2018-10-12T05:38:33.919Z,99.90
2018-10-12T05:41:05.085Z,99.90
2018-10-12T05:43:35.604Z,99.90
2018-10-12T05:46:05.856Z,99.90
2018-10-12T05:49:37.159Z,99.90
2018-10-12T05:52:09.603Z,99.90
2018-10-12T05:54:39.999Z,99.90
2018-10-12T05:57:10.412Z,99.90
2018-10-12T05:59:41.566Z,99.90
2018-10-12T06:02:11.958Z,99.90
2018-10-12T06:04:42.373Z,99.90
2018-10-12T06:07:12.762Z,99.90
2018-10-12T06:09:46.389Z,99.90
2018-10-12T06:12:16.632Z,99.90
2018-10-12T06:14:47.031Z,99.90
2018-10-12T06:17:37.831Z,99.90
2018-10-12T06:20:27.324Z,99.90
2018-10-12T06:22:57.731Z,99.90
2018-10-12T06:25:28.116Z,99.90
2018-10-12T06:27:59.266Z,99.90
2018-10-12T06:30:29.685Z,99.90
2018-10-12T06:33:00.949Z,99.90
2018-10-12T06:35:33.133Z,99.90
2018-10-12T06:38:07.558Z,99.90
2018-10-12T06:40:56.301Z,99.90
2018-10-12T06:43:34.667Z,99.90
2018-10-12T06:46:05.061Z,99.90
2018-10-12T06:48:54.825Z,99.90
2018-10-12T06:51:25.226Z,99.90
2018-10-12T06:53:56.417Z,99.90
2018-10-12T06:56:26.722Z,99.90
2018-10-12T06:58:57.832Z,99.90
2018-10-12T07:01:28.922Z,99.90
2018-10-12T07:04:05.667Z,99.90
2018-10-12T07:06:36.944Z,99.90
2018-10-12T07:09:28.702Z,99.90
2018-10-12T07:11:59.104Z,99.90
2018-10-12T07:14:29.440Z,99.90
2018-10-12T07:16:59.868Z,99.90
2018-10-12T07:19:30.281Z,99.90
2018-10-12T07:22:00.582Z,99.90
2018-10-12T07:24:30.990Z,99.90
2018-10-12T07:27:02.150Z,99.90
2018-10-12T07:29:32.544Z,99.90
2018-10-12T07:34:47.508Z,99.90
2018-10-12T07:37:17.901Z,99.90
2018-10-12T07:39:48.220Z,99.90
2018-10-12T07:42:18.652Z,99.90
2018-10-12T07:44:49.788Z,99.90
2018-10-12T07:47:20.184Z,99.90
2018-10-12T07:49:50.517Z,99.90
2018-10-12T07:52:21.674Z,99.90
2018-10-12T07:54:52.060Z,99.90
2018-10-12T07:57:22.486Z,99.90
2018-10-12T07:59:52.887Z,99.90
2018-10-12T08:02:29.423Z,99.90
2018-10-12T08:04:59.822Z,99.90
2018-10-12T08:07:30.199Z,99.90
2018-10-12T08:10:00.612Z,99.90
2018-10-12T08:12:31.014Z,99.90
2018-10-12T08:15:01.402Z,99.90
2018-10-12T08:17:32.754Z,99.90
2018-10-12T08:20:03.143Z,99.90
2018-10-12T08:22:33.459Z,99.90
2018-10-12T08:25:03.884Z,99.90
2018-10-12T08:27:35.042Z,99.90
2018-10-12T08:30:05.437Z,99.90
2018-10-12T08:32:36.628Z,99.90
2018-10-12T08:35:08.054Z,99.90
2018-10-12T08:37:38.447Z,99.90
2018-10-12T08:40:08.856Z,99.90
2018-10-12T08:42:39.250Z,99.90
2018-10-12T08:45:09.651Z,99.90
2018-10-12T08:47:40.823Z,99.90
2018-10-12T08:50:11.210Z,99.90
2018-10-12T08:52:42.362Z,99.90
2018-10-12T08:55:13.546Z,99.90
2018-10-12T08:57:45.972Z,99.90
2018-10-12T09:00:16.361Z,99.90
2018-10-12T09:02:47.853Z,99.90
2018-10-12T09:05:19.260Z,99.90
2018-10-12T09:07:50.309Z,99.90
2018-10-12T09:10:20.724Z,99.90
2018-10-12T09:12:58.701Z,99.90
2018-10-12T09:15:29.102Z,99.90
2018-10-12T09:17:59.491Z,99.90
2018-10-12T09:20:49.344Z,99.90
2018-10-12T09:23:23.765Z,99.90
2018-10-12T09:25:54.165Z,99.90
2018-10-12T09:28:25.327Z,99.90
2018-10-12T09:30:56.487Z,99.90
2018-10-12T09:33:26.875Z,99.90
2018-10-12T09:35:57.278Z,99.90
2018-10-12T09:38:27.669Z,99.90
2018-10-12T09:40:58.072Z,99.90
2018-10-12T09:43:28.457Z,99.90
2018-10-12T09:45:58.858Z,99.90
2018-10-12T09:48:29.266Z,99.90
2018-10-12T09:50:59.673Z,99.90
2018-10-12T09:53:30.831Z,99.90
2018-10-12T09:56:01.403Z,99.90
2018-10-12T09:58:31.547Z,99.90
2018-10-12T10:01:01.939Z,99.90
2018-10-12T10:03:34.302Z,99.90
2018-10-12T10:06:04.719Z,99.90
2018-10-12T10:08:35.143Z,99.90
2018-10-12T10:11:05.431Z,99.90
2018-10-12T10:13:35.774Z,99.90
2018-10-12T10:16:06.856Z,99.90
2018-10-12T10:18:41.346Z,99.90
2018-10-12T10:21:13.771Z,99.90
2018-10-12T10:23:44.168Z,99.90
2018-10-12T10:26:14.567Z,99.90
2018-10-12T10:28:45.732Z,99.90
2018-10-12T10:31:16.125Z,99.90
2018-10-12T10:33:46.520Z,99.90
2018-10-12T10:36:17.929Z,99.90
2018-10-12T10:38:48.325Z,99.90
2018-10-12T10:41:18.735Z,99.90
2018-10-12T10:43:49.135Z,99.90
2018-10-12T10:46:19.546Z,99.90
2018-10-12T10:48:49.950Z,99.90
2018-10-12T10:51:20.341Z,99.90
2018-10-12T10:53:50.747Z,99.90
2018-10-12T10:56:28.313Z,99.90
2018-10-12T10:58:58.711Z,99.90
2018-10-12T11:01:29.025Z,99.90
2018-10-12T11:03:59.431Z,99.90
2018-10-12T11:06:36.651Z,99.90
2018-10-12T11:09:07.071Z,99.90
2018-10-12T11:11:37.471Z,99.90
2018-10-12T11:14:27.250Z,99.90
2018-10-12T11:16:57.652Z,99.90
2018-10-12T11:19:28.090Z,99.90
2018-10-12T11:21:59.209Z,99.90
2018-10-12T11:24:30.427Z,99.90
2018-10-12T11:27:01.784Z,99.90
2018-10-12T11:29:32.950Z,99.90
2018-10-12T11:32:03.273Z,99.90
2018-10-12T11:34:33.669Z,99.90
2018-10-12T11:39:47.794Z,99.90
2018-10-12T11:42:20.243Z,99.90
2018-10-12T11:44:51.431Z,99.90
2018-10-12T11:47:22.168Z,99.90
2018-10-12T11:50:13.971Z,99.90
2018-10-12T11:52:44.373Z,99.90
2018-10-12T11:55:15.531Z,99.90
2018-10-12T11:57:45.946Z,99.90
2018-10-12T12:00:17.034Z,99.90
2018-10-12T12:02:48.458Z,99.90
2018-10-12T12:05:18.868Z,99.90
2018-10-12T12:07:50.016Z,99.90
2018-10-12T12:10:20.415Z,99.90
2018-10-12T12:12:50.810Z,99.90
2018-10-12T12:15:42.363Z,99.20
2018-10-12T12:18:12.778Z,99.20
2018-10-12T12:20:43.161Z,98.90
2018-10-12T12:23:13.550Z,99.00
2018-10-12T12:25:43.952Z,99.50
2018-10-12T12:28:14.334Z,99.00
2018-10-12T12:30:44.739Z,98.60
2018-10-12T12:33:15.839Z,99.00
2018-10-12T12:35:51.827Z,99.00
2018-10-12T12:38:21.787Z,98.90
2018-10-12T12:40:52.191Z,98.30
2018-10-12T12:43:23.351Z,98.30
2018-10-12T12:45:53.762Z,98.30
2018-10-12T12:48:25.314Z,98.40
2018-10-12T12:50:55.329Z,98.40
2018-10-12T12:53:28.555Z,98.10
2018-10-12T12:55:58.939Z,98.10
2018-10-12T12:58:29.263Z,97.50
2018-10-12T13:00:59.682Z,97.50
2018-10-12T13:03:30.073Z,98.10
2018-10-12T13:06:00.463Z,97.70
2018-10-12T13:08:31.645Z,97.00
2018-10-12T13:11:22.169Z,97.00
2018-10-12T13:13:52.518Z,97.20
2018-10-12T13:16:23.607Z,97.90
2018-10-12T13:18:54.000Z,97.60
2018-10-12T13:21:27.520Z,97.80
2018-10-12T13:23:57.907Z,97.80
2018-10-12T13:26:28.293Z,98.10
2018-10-12T13:29:06.024Z,97.80
2018-10-12T13:31:36.352Z,96.70
2018-10-12T13:34:06.733Z,96.20
2018-10-12T13:36:41.015Z,96.00
2018-10-12T13:39:12.173Z,95.30
2018-10-12T13:41:42.576Z,95.30
2018-10-12T13:44:13.752Z,95.90
2018-10-12T13:46:44.254Z,95.80
2018-10-12T13:49:15.304Z,96.20
2018-10-12T13:51:46.479Z,96.60
2018-10-12T13:54:16.920Z,96.50
2018-10-12T13:56:48.040Z,95.40
2018-10-12T13:59:18.375Z,95.40
2018-10-12T14:01:48.767Z,95.50
2018-10-12T14:04:19.919Z,95.40
2018-10-12T14:06:50.329Z,95.30
2018-10-12T14:09:20.722Z,95.60
2018-10-12T14:11:53.177Z,95.60
2018-10-12T14:14:25.641Z,94.30
2018-10-12T14:16:56.020Z,94.20
2018-10-12T14:19:26.674Z,93.30
2018-10-12T14:22:04.077Z,93.40
2018-10-12T14:24:35.231Z,93.30
2018-10-12T14:27:05.617Z,93.30
2018-10-12T14:29:35.955Z,92.40
2018-10-12T14:32:07.098Z,93.40
2018-10-12T14:34:37.721Z,93.30
2018-10-12T14:37:08.020Z,92.80
2018-10-12T14:39:43.218Z,92.60
2018-10-12T14:42:13.542Z,92.50
2018-10-12T14:44:43.959Z,91.90
2018-10-12T14:47:14.274Z,92.30
2018-10-12T14:49:47.199Z,92.50
2018-10-12T14:52:17.610Z,92.80
2018-10-12T14:54:48.003Z,92.90
2018-10-12T14:57:18.395Z,92.70
2018-10-12T14:59:52.903Z,93.00
2018-10-12T15:02:23.286Z,92.90
2018-10-12T15:04:53.700Z,92.00
2018-10-12T15:07:24.109Z,92.10
2018-10-12T15:12:41.042Z,91.30
2018-10-12T15:15:34.215Z,91.30
2018-10-12T15:18:04.621Z,91.40
2018-10-12T15:20:41.096Z,91.70
2018-10-12T15:23:11.476Z,91.20
2018-10-12T15:25:42.676Z,91.60
2018-10-12T15:28:13.030Z,91.60
2018-10-12T15:30:47.056Z,92.00
2018-10-12T15:33:18.202Z,92.40
2018-10-12T15:35:48.602Z,92.30
2018-10-12T15:38:19.006Z,92.70
2018-10-12T15:40:49.385Z,92.10
2018-10-12T15:43:19.797Z,91.30
2018-10-12T15:45:50.043Z,91.60
2018-10-12T15:48:20.440Z,91.50
2018-10-12T15:50:50.829Z,91.00
2018-10-12T15:53:40.586Z,91.10
2018-10-12T15:56:11.057Z,91.90
2018-10-12T15:58:42.151Z,91.00
2018-10-12T16:01:12.521Z,91.00
2018-10-12T16:03:42.921Z,91.20
2018-10-12T16:06:13.295Z,90.90
2018-10-12T16:09:02.705Z,91.20
2018-10-12T16:11:37.321Z,91.10
2018-10-12T16:14:07.648Z,91.30
2018-10-12T16:16:38.755Z,91.10
2018-10-12T16:19:09.159Z,91.60
2018-10-12T16:21:40.505Z,91.80
2018-10-12T16:24:31.296Z,92.00
2018-10-12T16:27:01.685Z,92.20
2018-10-12T16:29:32.841Z,92.30
2018-10-12T16:32:06.054Z,92.30
2018-10-12T16:34:39.314Z,92.70
2018-10-12T16:37:10.747Z,92.80
2018-10-12T16:39:41.160Z,93.00
2018-10-12T16:42:13.989Z,93.00
2018-10-12T16:44:44.386Z,93.20
2018-10-12T16:47:14.804Z,93.30
2018-10-12T16:49:45.204Z,93.40
2018-10-12T16:52:37.304Z,93.80
2018-10-12T16:55:10.151Z,93.90
2018-10-12T16:57:43.202Z,94.00
2018-10-12T17:00:13.523Z,94.10
2018-10-12T17:02:43.848Z,94.60
2018-10-12T17:05:14.263Z,94.60
2018-10-12T17:07:44.635Z,94.70
2018-10-12T17:10:17.823Z,94.90
2018-10-12T17:12:48.150Z,95.00
2018-10-12T17:15:18.546Z,94.90
2018-10-12T17:17:55.280Z,94.90
2018-10-12T17:20:25.612Z,95.20
2018-10-12T17:22:59.514Z,95.40
2018-10-12T17:25:30.624Z,95.40
2018-10-12T17:28:03.596Z,95.40
2018-10-12T17:30:34.030Z,95.50
2018-10-12T17:33:05.154Z,95.80
2018-10-12T17:35:35.533Z,95.80
2018-10-12T17:38:05.916Z,96.00
2018-10-12T17:40:37.348Z,96.00
2018-10-12T17:43:08.478Z,96.20
2018-10-12T17:45:51.373Z,96.40
2018-10-12T17:48:24.206Z,96.40
2018-10-12T17:50:54.599Z,96.80
2018-10-12T17:53:25.762Z,97.00
2018-10-12T17:55:58.829Z,96.90
2018-10-12T17:58:29.147Z,97.00
2018-10-12T18:01:03.630Z,96.90
2018-10-12T18:03:38.113Z,96.90
2018-10-12T18:06:08.511Z,96.70
2018-10-12T18:08:42.087Z,96.80
2018-10-12T18:11:15.655Z,96.90
2018-10-12T18:13:48.726Z,96.90
2018-10-12T18:16:19.877Z,97.00
2018-10-12T18:18:50.273Z,96.90
2018-10-12T18:21:25.984Z,96.90
2018-10-12T18:23:57.418Z,96.90
2018-10-12T18:26:27.743Z,96.90
2018-10-12T18:28:58.123Z,96.90
2018-10-12T18:34:10.344Z,96.70
2018-10-12T18:36:40.962Z,97.00
2018-10-12T18:39:11.348Z,97.10
2018-10-12T18:41:41.719Z,97.30
2018-10-12T18:44:12.114Z,97.40
2018-10-12T18:46:47.988Z,97.60
2018-10-12T18:49:26.391Z,97.70
2018-10-12T18:52:02.909Z,97.80
2018-10-12T18:54:35.351Z,97.70
2018-10-12T18:57:09.654Z,97.70
2018-10-12T18:59:40.119Z,97.60
2018-10-12T19:02:13.258Z,97.60
2018-10-12T19:04:43.771Z,97.80
2018-10-12T19:07:13.986Z,97.90
2018-10-12T19:09:45.078Z,98.00
2018-10-12T19:12:17.524Z,98.00
2018-10-12T19:14:47.931Z,98.10
2018-10-12T19:17:20.843Z,98.00
2018-10-12T19:19:53.785Z,98.00
2018-10-12T19:22:24.162Z,97.80
2018-10-12T19:24:55.595Z,98.20
2018-10-12T19:27:29.564Z,98.50
2018-10-12T19:30:02.870Z,98.80
2018-10-12T19:32:35.619Z,98.60
2018-10-12T19:35:06.021Z,98.80
2018-10-12T19:37:36.351Z,98.80
2018-10-12T19:40:06.745Z,98.90
2018-10-12T19:42:40.978Z,99.00
2018-10-12T19:45:16.542Z,99.00
2018-10-12T19:50:31.412Z,98.90
2018-10-12T19:53:01.922Z,98.90
2018-10-12T19:55:32.185Z,99.10
2018-10-12T19:58:04.623Z,99.30
2018-10-12T20:00:38.148Z,99.30
2018-10-12T20:03:08.495Z,99.30
2018-10-12T20:05:44.190Z,99.30
2018-10-12T20:08:14.504Z,99.30
2018-10-12T20:10:47.459Z,99.30
2018-10-12T20:13:37.233Z,99.30
2018-10-12T20:16:07.626Z,99.30
2018-10-12T20:18:41.738Z,99.40
2018-10-12T20:21:15.754Z,99.60
2018-10-12T20:23:46.140Z,99.60
2018-10-12T20:26:16.479Z,99.50
2018-10-12T20:28:46.879Z,99.70
2018-10-12T20:31:20.389Z,99.60
2018-10-12T20:33:51.499Z,99.70
2018-10-12T20:36:27.513Z,99.70
2018-10-12T20:38:57.932Z,99.80
2018-10-12T20:41:28.230Z,99.60
2018-10-12T20:44:19.978Z,99.40
2018-10-12T20:46:50.368Z,99.50
2018-10-12T20:49:22.731Z,99.50
2018-10-12T20:51:53.126Z,99.50
2018-10-12T20:54:24.274Z,99.50
2018-10-12T20:56:55.463Z,99.50
2018-10-12T20:59:26.856Z,99.50
2018-10-12T21:02:02.513Z,99.60
2018-10-12T21:04:36.556Z,99.70
2018-10-12T21:07:06.935Z,99.60
2018-10-12T21:09:43.335Z,99.80
2018-10-12T21:12:13.729Z,99.70
2018-10-12T21:14:44.046Z,99.70
2018-10-12T21:17:14.380Z,99.70
2018-10-12T21:19:44.770Z,99.70
2018-10-12T21:22:19.277Z,99.60
2018-10-12T21:24:49.670Z,99.90
2018-10-12T21:27:23.430Z,99.90
2018-10-12T21:30:01.750Z,99.90
2018-10-12T21:32:38.269Z,99.90
2018-10-12T21:35:12.255Z,99.70
2018-10-12T21:37:42.646Z,99.60
2018-10-12T21:40:17.156Z,99.80
2018-10-12T21:42:48.289Z,99.80
2018-10-12T21:45:18.663Z,99.80
2018-10-12T21:47:49.061Z,99.90
2018-10-12T21:50:19.502Z,99.90
2018-10-12T21:52:50.620Z,99.90
2018-10-12T21:55:21.014Z,99.90
2018-10-12T21:57:52.117Z,99.90
2018-10-12T22:00:22.492Z,99.90
2018-10-12T22:02:53.651Z,99.90
2018-10-12T22:05:23.996Z,99.90
2018-10-12T22:07:54.307Z,99.90
2018-10-12T22:10:24.929Z,99.90
2018-10-12T22:12:55.328Z,99.90
2018-10-12T22:15:25.642Z,99.90
2018-10-12T22:17:56.037Z,99.90
2018-10-12T22:20:32.580Z,99.90
2018-10-12T22:23:02.972Z,99.90
2018-10-12T22:25:33.322Z,99.90
2018-10-12T22:28:03.620Z,99.90
2018-10-12T22:30:33.994Z,99.90
2018-10-12T22:33:04.419Z,99.90
2018-10-12T22:35:34.776Z,99.90
2018-10-12T22:38:24.194Z,99.90
2018-10-12T22:40:55.290Z,99.90
2018-10-12T22:43:25.676Z,99.90
2018-10-12T22:45:56.832Z,99.90
2018-10-12T22:48:27.232Z,99.90
2018-10-12T22:50:58.378Z,99.90
2018-10-12T22:53:29.527Z,99.90
2018-10-12T22:56:00.883Z,99.90
2018-10-12T22:58:31.975Z,99.90
2018-10-12T23:01:02.373Z,99.90
2018-10-12T23:03:32.787Z,99.80
2018-10-12T23:06:05.982Z,99.90
2018-10-12T23:08:36.356Z,99.90
2018-10-12T23:11:06.767Z,99.90
2018-10-12T23:13:56.523Z,99.80
2018-10-12T23:16:26.937Z,99.70
2018-10-12T23:18:58.082Z,99.50
2018-10-12T23:21:28.479Z,99.40
2018-10-12T23:23:58.893Z,99.50
2018-10-12T23:26:29.286Z,99.60
2018-10-12T23:29:02.747Z,99.60
2018-10-12T23:31:33.922Z,99.90
2018-10-12T23:34:04.329Z,99.50
2018-10-12T23:36:36.511Z,99.80
2018-10-12T23:39:06.916Z,99.70
2018-10-12T23:41:37.282Z,99.90
2018-10-12T23:44:07.667Z,99.90
2018-10-12T23:46:37.990Z,99.90
2018-10-12T23:49:08.372Z,99.90
2018-10-12T23:51:59.140Z,99.90
2018-10-12T23:54:29.521Z,99.90
2018-10-12T23:56:59.841Z,99.90
2018-10-12T23:59:30.239Z,99.90
